Time;durP1;ratioP1;P1;durP2;ratioP2;P2;SDS_P1;SDS_P2;PMS_P1;PMS_P2;Temp;Humidity;BMP_temperature;BMP_pressure;BME280_temperature;BME280_humidity;BME280_pressure;Samples;Min_cycle;Max_cycle;Signal;HPM_P1;HPM_P2
2021/06/08 00:00:26;;;;;;;;;;;;;;;14.30;100.00;101337.91;5093279;28;19947;-74
2021/06/08 00:02:52;;;;;;;;;;;;;;;14.30;100.00;101334.31;5093180;28;20003;-73
2021/06/08 00:05:18;;;;;;;;;;;;;;;14.21;100.00;101334.09;5093321;28;20403;-73
2021/06/08 00:07:46;;;;;;;;;;;;;;;14.20;100.00;101337.84;5091764;28;19930;-73
2021/06/08 00:10:12;;;;;;;;;;;;;;;14.20;100.00;101337.84;5093282;28;20044;-74
2021/06/08 00:12:38;;;;;;;;;;;;;;;14.21;100.00;101338.69;5092907;28;19928;-73
2021/06/08 00:15:05;;;;;;;;;;;;;;;14.21;100.00;101341.44;5092465;28;20432;-73
2021/06/08 00:17:31;;;;;;;;;;;;;;;14.17;100.00;101349.00;5092860;28;19954;-73
2021/06/08 00:19:57;;;;;;;;;;;;;;;14.09;100.00;101340.63;5092781;28;19994;-73
2021/06/08 00:22:22;;;;;;;;;;;;;;;14.00;100.00;101346.88;5093065;28;19924;-73
2021/06/08 00:24:50;;;;;;;;;;;;;;;13.94;100.00;101347.41;5092483;28;20003;-73
2021/06/08 00:27:15;;;;;;;;;;;;;;;13.85;100.00;101343.59;5091672;28;20330;-73
2021/06/08 00:29:41;;;;;;;;;;;;;;;13.79;100.00;101349.56;5092845;28;19924;-73
2021/06/08 00:32:07;;;;;;;;;;;;;;;13.73;100.00;101340.94;5090909;28;19993;-73
2021/06/08 00:34:33;;;;;;;;;;;;;;;13.70;100.00;101341.19;5092360;28;19924;-74
2021/06/08 00:36:59;;;;;;;;;;;;;;;13.63;100.00;101339.09;5092499;28;19950;-73
2021/06/08 00:39:24;;;;;;;;;;;;;;;13.51;100.00;101339.16;5092618;28;19924;-73
2021/06/08 00:41:52;;;;;;;;;;;;;;;13.49;100.00;101340.28;5091511;28;19924;-74
2021/06/08 00:44:18;;;;;;;;;;;;;;;13.41;100.00;101345.50;5092172;28;19924;-73
2021/06/08 00:46:45;;;;;;;;;;;;;;;13.34;100.00;101345.13;5092447;28;19935;-73
2021/06/08 00:49:11;;;;;;;;;;;;;;;13.27;100.00;101346.59;5092264;28;20030;-73
2021/06/08 00:51:37;;;;;;;;;;;;;;;13.32;100.00;101352.53;5092306;28;19924;-73
2021/06/08 00:54:06;;;;;;;;;;;;;;;13.29;100.00;101350.09;5092047;28;20410;-73
2021/06/08 00:56:32;;;;;;;;;;;;;;;13.30;100.00;101352.69;5091321;28;19924;-73
2021/06/08 00:58:59;;;;;;;;;;;;;;;13.25;100.00;101345.88;5092324;28;19970;-73
2021/06/08 01:01:25;;;;;;;;;;;;;;;13.20;100.00;101348.97;5091968;28;19963;-73
2021/06/08 01:03:50;;;;;;;;;;;;;;;13.09;100.00;101349.00;5092076;28;19928;-73
2021/06/08 01:06:16;;;;;;;;;;;;;;;13.08;100.00;101356.31;5091892;28;19924;-73
2021/06/08 01:08:42;;;;;;;;;;;;;;;13.09;100.00;101351.72;5092068;28;20268;-73
2021/06/08 01:11:08;;;;;;;;;;;;;;;13.09;100.00;101349.00;5092047;28;20380;-73
2021/06/08 01:13:34;;;;;;;;;;;;;;;13.09;100.00;101347.13;5091579;28;19935;-74
2021/06/08 01:16:01;;;;;;;;;;;;;;;13.07;100.00;101346.41;5092237;28;19931;-73
2021/06/08 01:18:27;;;;;;;;;;;;;;;13.06;100.00;101347.41;5091689;28;19924;-74
2021/06/08 01:20:59;;;;;;;;;;;;;;;13.10;100.00;101348.88;5090762;28;20623;-73
2021/06/08 01:23:25;;;;;;;;;;;;;;;13.06;100.00;101341.94;5091509;28;19924;-73
2021/06/08 01:25:51;;;;;;;;;;;;;;;12.98;100.00;101345.28;5091852;28;20303;-73
2021/06/08 01:28:19;;;;;;;;;;;;;;;12.94;100.00;101345.69;5091758;28;19976;-74
2021/06/08 01:30:46;;;;;;;;;;;;;;;12.92;100.00;101334.91;5090503;28;19986;-73
2021/06/08 01:33:12;;;;;;;;;;;;;;;12.89;100.00;101346.91;5091656;28;19977;-74
2021/06/08 01:35:39;;;;;;;;;;;;;;;12.89;100.00;101354.22;5090364;28;19975;-73
2021/06/08 01:38:06;;;;;;;;;;;;;;;12.84;100.00;101342.81;5092044;28;19924;-74
2021/06/08 01:40:33;;;;;;;;;;;;;;;12.81;100.00;101348.53;5090812;28;20470;-74
2021/06/08 01:42:59;;;;;;;;;;;;;;;12.77;100.00;101347.03;5091512;28;19932;-74
2021/06/08 01:45:24;;;;;;;;;;;;;;;12.71;100.00;101353.84;5090684;28;20299;-74
2021/06/08 01:47:50;;;;;;;;;;;;;;;12.68;100.00;101354.97;5091280;28;20422;-73
2021/06/08 01:50:16;;;;;;;;;;;;;;;12.60;100.00;101356.56;5091706;28;19924;-74
2021/06/08 01:52:45;;;;;;;;;;;;;;;12.55;100.00;101356.94;5091616;28;20369;-74
2021/06/08 01:55:15;;;;;;;;;;;;;;;12.53;100.00;101354.34;5091195;28;19928;-74
2021/06/08 01:57:44;;;;;;;;;;;;;;;12.48;100.00;101348.41;5091618;28;20019;-74
2021/06/08 02:00:12;;;;;;;;;;;;;;;12.44;100.00;101357.78;5091415;28;19924;-74
2021/06/08 02:02:42;;;;;;;;;;;;;;;12.40;100.00;101356.31;5090004;28;19973;-73
2021/06/08 02:05:14;;;;;;;;;;;;;;;12.42;100.00;101354.31;5091631;28;19931;-74
2021/06/08 02:07:44;;;;;;;;;;;;;;;12.41;100.00;101355.28;5091710;28;19974;-74
2021/06/08 02:10:22;;;;;;;;;;;;;;;12.36;100.00;101357.53;5096006;28;19974;-74
2021/06/08 02:12:53;;;;;;;;;;;;;;;12.31;100.00;101357.03;5094055;28;19935;-74
2021/06/08 02:15:19;;;;;;;;;;;;;;;12.33;100.00;101361.38;5095368;28;20387;-74
2021/06/08 02:17:47;;;;;;;;;;;;;;;12.25;100.00;101360.22;5095023;28;20426;-74
2021/06/08 02:20:15;;;;;;;;;;;;;;;12.15;100.00;101358.22;5095722;28;20326;-74
2021/06/08 02:22:44;;;;;;;;;;;;;;;12.09;100.00;101366.84;5093913;28;19924;-74
2021/06/08 02:25:10;;;;;;;;;;;;;;;12.06;100.00;101358.94;5093784;28;19974;-74
2021/06/08 02:27:39;;;;;;;;;;;;;;;12.01;100.00;101356.59;5095064;28;20307;-74
2021/06/08 02:30:05;;;;;;;;;;;;;;;11.99;100.00;101357.69;5095100;28;19931;-74
2021/06/08 02:32:32;;;;;;;;;;;;;;;11.95;100.00;101353.47;5107672;28;19954;-74
2021/06/08 02:34:59;;;;;;;;;;;;;;;11.91;100.00;101363.69;5076764;28;20417;-74
2021/06/08 02:37:25;;;;;;;;;;;;;;;11.88;100.00;101362.06;5093621;28;19931;-73
2021/06/08 02:39:52;;;;;;;;;;;;;;;11.88;100.00;101367.50;5094926;28;19924;-74
2021/06/08 02:42:19;;;;;;;;;;;;;;;11.87;100.00;101368.47;5094756;28;19924;-73
2021/06/08 02:44:46;;;;;;;;;;;;;;;11.85;100.00;101366.84;5094741;28;19949;-74
2021/06/08 02:47:13;;;;;;;;;;;;;;;11.84;100.00;101365.16;5094958;28;19925;-73
2021/06/08 02:49:39;;;;;;;;;;;;;;;11.87;100.00;101371.19;5094601;28;19998;-74
2021/06/08 02:52:06;;;;;;;;;;;;;;;11.92;100.00;101368.13;5093819;28;19924;-74
2021/06/08 02:54:32;;;;;;;;;;;;;;;12.01;100.00;101369.31;5094101;28;19924;-74
2021/06/08 02:56:59;;;;;;;;;;;;;;;12.01;100.00;101362.03;5094671;28;19924;-74
2021/06/08 02:59:26;;;;;;;;;;;;;;;11.98;100.00;101367.69;5094216;28;20387;-74
2021/06/08 03:01:55;;;;;;;;;;;;;;;11.98;100.00;101355.94;5094872;28;19962;-74
2021/06/08 03:04:22;;;;;;;;;;;;;;;11.99;100.00;101361.25;5094457;28;20137;-74
2021/06/08 03:06:51;;;;;;;;;;;;;;;12.00;100.00;101356.72;5093121;28;19928;-74
2021/06/08 03:09:24;;;;;;;;;;;;;;;12.06;100.00;101364.38;5094517;28;20387;-74
2021/06/08 03:11:50;;;;;;;;;;;;;;;12.08;100.00;101364.25;5094183;28;19924;-74
2021/06/08 03:14:17;;;;;;;;;;;;;;;12.22;100.00;101375.78;5094180;28;19977;-74
2021/06/08 03:16:44;;;;;;;;;;;;;;;12.28;100.00;101379.03;5092864;28;19931;-74
2021/06/08 03:19:14;;;;;;;;;;;;;;;12.40;100.00;101380.81;5093575;28;19925;-74
2021/06/08 03:21:42;;;;;;;;;;;;;;;12.52;100.00;101381.66;5093995;28;19973;-74
2021/06/08 03:24:09;;;;;;;;;;;;;;;12.60;100.00;101384.69;5093747;28;19924;-74
2021/06/08 03:26:36;;;;;;;;;;;;;;;12.63;100.00;101394.47;5094150;28;19977;-74
2021/06/08 03:29:04;;;;;;;;;;;;;;;12.66;100.00;101386.03;5094164;28;19928;-74
2021/06/08 03:31:30;;;;;;;;;;;;;;;12.79;100.00;101391.38;5093757;28;19967;-74
2021/06/08 03:33:56;;;;;;;;;;;;;;;12.87;100.00;101389.75;5093943;28;20019;-74
2021/06/08 03:36:26;;;;;;;;;;;;;;;12.95;100.00;101382.81;5093416;28;20375;-74
2021/06/08 03:38:52;;;;;;;;;;;;;;;13.04;100.00;101382.06;5093790;28;19931;-75
2021/06/08 03:41:18;;;;;;;;;;;;;;;13.11;100.00;101382.44;5092035;28;20531;-75
2021/06/08 03:43:44;;;;;;;;;;;;;;;13.16;100.00;101381.09;5092970;28;19931;-75
2021/06/08 03:46:10;;;;;;;;;;;;;;;13.20;100.00;101382.56;5093624;28;20399;-75
2021/06/08 03:48:36;;;;;;;;;;;;;;;13.24;100.00;101380.44;5091272;28;19932;-75
2021/06/08 03:51:03;;;;;;;;;;;;;;;13.37;100.00;101383.06;5093654;28;19959;-74
2021/06/08 03:53:30;;;;;;;;;;;;;;;13.48;100.00;101377.59;5092855;28;19931;-75
2021/06/08 03:55:56;;;;;;;;;;;;;;;13.55;100.00;101373.34;5092581;28;19947;-75
2021/06/08 03:58:22;;;;;;;;;;;;;;;13.62;100.00;101370.13;5093374;28;19928;-75
2021/06/08 04:00:50;;;;;;;;;;;;;;;13.67;100.00;101373.28;5091604;28;19981;-75
2021/06/08 04:03:17;;;;;;;;;;;;;;;13.75;100.00;101378.13;5093339;28;19924;-75
2021/06/08 04:05:43;;;;;;;;;;;;;;;13.84;100.00;101372.75;5093087;28;19950;-75
2021/06/08 04:08:10;;;;;;;;;;;;;;;13.94;100.00;101377.44;5093186;28;19924;-75
2021/06/08 04:10:38;;;;;;;;;;;;;;;14.06;100.00;101379.13;5092870;28;19931;-74
2021/06/08 04:13:04;;;;;;;;;;;;;;;14.18;100.00;101378.06;5092356;28;19959;-75
2021/06/08 04:15:31;;;;;;;;;;;;;;;14.32;100.00;101375.97;5092558;28;19962;-75
2021/06/08 04:17:57;;;;;;;;;;;;;;;14.49;100.00;101380.84;5093053;28;19924;-75
2021/06/08 04:20:25;;;;;;;;;;;;;;;14.65;100.00;101376.81;5092658;28;19924;-75
2021/06/08 04:22:54;;;;;;;;;;;;;;;14.80;100.00;101374.56;5091616;28;19963;-75
2021/06/08 04:25:20;;;;;;;;;;;;;;;14.94;100.00;101370.59;5092146;28;19924;-75
2021/06/08 04:27:47;;;;;;;;;;;;;;;15.09;100.00;101368.38;5092933;28;20269;-75
2021/06/08 04:30:14;;;;;;;;;;;;;;;15.21;100.00;101370.84;5092084;28;19932;-75
2021/06/08 04:32:40;;;;;;;;;;;;;;;15.36;100.00;101375.91;5091874;28;20403;-75
2021/06/08 04:35:07;;;;;;;;;;;;;;;15.54;100.00;101376.13;5090798;28;19932;-69
2021/06/08 04:37:33;;;;;;;;;;;;;;;15.68;100.00;101378.41;5091161;28;19931;-69
2021/06/08 04:39:59;;;;;;;;;;;;;;;15.88;100.00;101373.00;5090222;28;19931;-69
2021/06/08 04:42:25;;;;;;;;;;;;;;;16.08;100.00;101373.84;5091807;28;19924;-68
2021/06/08 04:44:52;;;;;;;;;;;;;;;16.30;100.00;101377.28;5091400;28;20019;-68
2021/06/08 04:47:19;;;;;;;;;;;;;;;16.57;100.00;101382.00;5091603;28;19989;-68
2021/06/08 04:49:45;;;;;;;;;;;;;;;16.87;100.00;101375.41;5091744;28;20418;-68
2021/06/08 04:52:12;;;;;;;;;;;;;;;17.05;100.00;101385.63;5092262;28;19967;-69
2021/06/08 04:54:38;;;;;;;;;;;;;;;17.27;100.00;101378.00;5089988;28;19974;-69
2021/06/08 04:57:05;;;;;;;;;;;;;;;17.39;100.00;101379.53;5089773;28;19955;-68
2021/06/08 04:59:34;;;;;;;;;;;;;;;17.51;100.00;101375.53;5092123;28;19970;-68
2021/06/08 05:02:02;;;;;;;;;;;;;;;17.59;100.00;101384.91;5092397;28;19924;-69
2021/06/08 05:04:30;;;;;;;;;;;;;;;17.52;100.00;101391.00;5091394;28;19931;-68
2021/06/08 05:07:00;;;;;;;;;;;;;;;17.50;100.00;101387.53;5092008;28;19978;-69
2021/06/08 05:09:30;;;;;;;;;;;;;;;17.49;100.00;101391.31;5091814;28;19928;-69
2021/06/08 05:11:58;;;;;;;;;;;;;;;17.43;100.00;101383.69;5092432;28;19924;-69
2021/06/08 05:14:24;;;;;;;;;;;;;;;17.39;100.00;101385.88;5091429;28;20399;-69
2021/06/08 05:16:51;;;;;;;;;;;;;;;17.29;100.00;101395.16;5091468;28;20281;-69
2021/06/08 05:19:21;;;;;;;;;;;;;;;17.18;100.00;101396.22;5091645;28;19924;-69
2021/06/08 05:21:47;;;;;;;;;;;;;;;17.08;100.00;101396.28;5091301;28;19932;-69
2021/06/08 05:24:15;;;;;;;;;;;;;;;17.07;100.00;101398.16;5090291;28;20054;-69
2021/06/08 05:26:42;;;;;;;;;;;;;;;17.06;100.00;101395.56;5090843;28;19935;-69
2021/06/08 05:29:08;;;;;;;;;;;;;;;17.07;100.00;101398.16;5092033;28;19924;-69
2021/06/08 05:31:34;;;;;;;;;;;;;;;17.06;100.00;101401.06;5091500;28;19951;-69
2021/06/08 05:34:00;;;;;;;;;;;;;;;17.05;100.00;101402.09;5091526;28;20017;-69
2021/06/08 05:36:30;;;;;;;;;;;;;;;17.03;100.00;101404.09;5091382;28;19924;-69
2021/06/08 05:38:56;;;;;;;;;;;;;;;17.14;100.00;101403.91;5091405;28;20402;-69
2021/06/08 05:41:22;;;;;;;;;;;;;;;17.36;100.00;101407.28;5091329;28;19928;-69
2021/06/08 05:43:47;;;;;;;;;;;;;;;17.61;100.00;101405.69;5083526;28;19993;-69
2021/06/08 05:46:13;;;;;;;;;;;;;;;17.91;100.00;101407.19;5091251;28;19924;-69
2021/06/08 05:48:40;;;;;;;;;;;;;;;18.17;100.00;101398.22;5091425;28;19928;-69
2021/06/08 05:51:06;;;;;;;;;;;;;;;18.41;100.00;101399.41;5091392;28;19924;-69
2021/06/08 05:53:36;;;;;;;;;;;;;;;18.60;100.00;101397.47;5083891;28;19936;-69
2021/06/08 05:56:02;;;;;;;;;;;;;;;18.71;100.00;101405.47;5080847;28;20316;-69
2021/06/08 05:58:28;;;;;;;;;;;;;;;18.87;100.00;101408.31;5090403;28;20391;-69
2021/06/08 06:00:55;;;;;;;;;;;;;;;19.11;100.00;101405.88;5090925;28;20017;-69
2021/06/08 06:03:23;;;;;;;;;;;;;;;19.44;100.00;101412.44;5090973;28;19938;-69
2021/06/08 06:05:49;;;;;;;;;;;;;;;19.81;100.00;101402.91;5090982;28;19931;-69
2021/06/08 06:08:15;;;;;;;;;;;;;;;20.35;100.00;101402.44;5071159;28;19964;-69
2021/06/08 06:10:43;;;;;;;;;;;;;;;20.72;100.00;101403.81;5073911;28;20276;-70
2021/06/08 06:13:12;;;;;;;;;;;;;;;21.20;100.00;101409.34;5090983;28;19963;-70
2021/06/08 06:15:39;;;;;;;;;;;;;;;21.61;100.00;101410.25;5090823;28;19967;-69
2021/06/08 06:18:06;;;;;;;;;;;;;;;22.00;100.00;101407.38;5090682;28;20399;-69
2021/06/08 06:20:32;;;;;;;;;;;;;;;22.44;100.00;101405.88;5089785;28;19928;-69
2021/06/08 06:22:57;;;;;;;;;;;;;;;22.72;100.00;101408.03;5090228;28;19931;-70
2021/06/08 06:25:24;;;;;;;;;;;;;;;22.84;100.00;101409.28;5089423;28;19931;-70
2021/06/08 06:27:51;;;;;;;;;;;;;;;23.14;100.00;101405.69;5090483;28;20023;-70
2021/06/08 06:30:18;;;;;;;;;;;;;;;23.35;100.00;101407.69;5091241;28;20397;-70
2021/06/08 06:32:44;;;;;;;;;;;;;;;23.41;100.00;101409.69;5090284;28;20011;-70
2021/06/08 06:35:11;;;;;;;;;;;;;;;23.61;100.00;101407.16;5090785;28;20388;-70
2021/06/08 06:37:38;;;;;;;;;;;;;;;24.05;100.00;101408.97;5090316;28;20342;-70
2021/06/08 06:40:05;;;;;;;;;;;;;;;23.99;100.00;101404.19;5090609;28;19970;-71
2021/06/08 06:42:38;;;;;;;;;;;;;;;24.02;100.00;101405.72;5090735;28;20388;-71
2021/06/08 06:45:08;;;;;;;;;;;;;;;24.29;100.00;101401.31;5090774;28;20013;-72
2021/06/08 06:47:35;;;;;;;;;;;;;;;24.65;100.00;101399.47;5090303;28;19928;-72
2021/06/08 06:50:01;;;;;;;;;;;;;;;24.93;100.00;101404.16;5089075;28;20529;-72
2021/06/08 06:52:27;;;;;;;;;;;;;;;24.99;100.00;101406.13;5089727;28;19924;-72
2021/06/08 06:54:53;;;;;;;;;;;;;;;24.86;100.00;101404.97;5089446;28;19924;-71
2021/06/08 06:57:19;;;;;;;;;;;;;;;24.83;100.00;101399.81;5093475;28;20308;-72
2021/06/08 06:59:45;;;;;;;;;;;;;;;25.26;98.14;101401.56;5092882;28;19928;-72
2021/06/08 07:02:13;;;;;;;;;;;;;;;25.50;96.55;101402.97;5092235;28;19974;-72
2021/06/08 07:04:39;;;;;;;;;;;;;;;26.00;92.82;101390.72;5093024;28;19924;-72
2021/06/08 07:07:06;;;;;;;;;;;;;;;25.93;91.71;101396.28;5093731;28;19924;-72
2021/06/08 07:09:32;;;;;;;;;;;;;;;26.01;90.04;101404.41;5093759;28;19925;-70
2021/06/08 07:11:58;;;;;;;;;;;;;;;26.02;88.73;101397.78;5093920;28;20402;-70
2021/06/08 07:14:25;;;;;;;;;;;;;;;26.38;90.31;101391.00;5092762;28;19924;-70
2021/06/08 07:16:52;;;;;;;;;;;;;;;26.91;86.80;101392.03;5092683;28;19966;-71
2021/06/08 07:19:20;;;;;;;;;;;;;;;27.07;85.48;101401.84;5093564;28;19993;-71
2021/06/08 07:21:46;;;;;;;;;;;;;;;27.28;80.45;101394.31;5093654;28;19950;-70
2021/06/08 07:24:13;;;;;;;;;;;;;;;27.65;79.32;101403.81;5093033;28;20357;-70
2021/06/08 07:26:39;;;;;;;;;;;;;;;27.66;77.00;101402.75;5092834;28;19924;-70
2021/06/08 07:29:07;;;;;;;;;;;;;;;28.14;77.67;101393.06;5076542;28;20014;-70
2021/06/08 07:31:40;;;;;;;;;;;;;;;28.30;71.54;101394.44;5092967;28;20019;-70
2021/06/08 07:34:09;;;;;;;;;;;;;;;28.52;72.63;101397.66;5092991;28;19924;-71
2021/06/08 07:36:40;;;;;;;;;;;;;;;28.87;68.52;101397.13;5093277;28;19992;-71
2021/06/08 07:39:09;;;;;;;;;;;;;;;29.21;66.06;101389.25;5091857;28;19985;-71
2021/06/08 07:41:37;;;;;;;;;;;;;;;29.00;63.96;101401.75;5092729;28;20353;-71
2021/06/08 07:44:05;;;;;;;;;;;;;;;28.72;62.83;101393.88;5092488;28;19928;-71
2021/06/08 07:46:31;;;;;;;;;;;;;;;28.49;61.14;101392.53;5092486;28;20403;-71
2021/06/08 07:48:58;;;;;;;;;;;;;;;28.09;64.05;101389.19;5092958;28;19924;-71
2021/06/08 07:51:25;;;;;;;;;;;;;;;28.49;62.35;101400.06;5092509;28;19950;-72
2021/06/08 07:53:53;;;;;;;;;;;;;;;27.51;57.36;101393.81;5091418;28;19924;-72
2021/06/08 07:56:19;;;;;;;;;;;;;;;27.75;59.30;101394.13;5089988;28;19964;-70
2021/06/08 07:58:45;;;;;;;;;;;;;;;28.10;59.62;101400.16;5078795;28;20460;-70
2021/06/08 08:01:14;;;;;;;;;;;;;;;28.89;60.20;101399.72;5092513;28;19931;-69
2021/06/08 08:03:40;;;;;;;;;;;;;;;29.25;55.62;101394.38;5092080;28;19924;-70
2021/06/08 08:06:07;;;;;;;;;;;;;;;29.54;53.21;101395.53;5091330;28;19928;-70
2021/06/08 08:08:34;;;;;;;;;;;;;;;29.91;48.64;101392.69;5092342;28;19924;-70
2021/06/08 08:11:05;;;;;;;;;;;;;;;30.25;47.21;101393.00;5091806;28;19924;-72
2021/06/08 08:13:32;;;;;;;;;;;;;;;29.60;44.57;101393.72;5091041;28;19969;-70
2021/06/08 08:16:02;;;;;;;;;;;;;;;29.34;46.50;101387.41;5092067;28;19931;-72
2021/06/08 08:18:28;;;;;;;;;;;;;;;29.44;47.85;101393.31;5090881;28;20018;-72
2021/06/08 08:20:56;;;;;;;;;;;;;;;28.87;47.40;101396.28;5092490;28;20321;-71
2021/06/08 08:23:24;;;;;;;;;;;;;;;29.11;47.71;101397.31;5088893;28;19931;-71
2021/06/08 08:25:50;;;;;;;;;;;;;;;29.30;50.88;101398.19;5089700;28;20032;-71
2021/06/08 08:28:17;;;;;;;;;;;;;;;29.88;48.72;101399.63;5092168;28;19976;-70
2021/06/08 08:30:43;;;;;;;;;;;;;;;30.29;48.45;101394.25;5091621;28;19924;-71
2021/06/08 08:33:09;;;;;;;;;;;;;;;30.75;45.58;101391.75;5091695;28;20001;-70
2021/06/08 08:35:36;;;;;;;;;;;;;;;31.14;44.08;101391.28;5091727;28;20406;-71
2021/06/08 08:38:03;;;;;;;;;;;;;;;30.72;42.53;101393.09;5090811;28;19978;-72
2021/06/08 08:40:29;;;;;;;;;;;;;;;31.00;43.77;101393.44;5092277;28;19924;-71
2021/06/08 08:42:55;;;;;;;;;;;;;;;31.03;43.50;101387.34;5090439;28;20013;-72
2021/06/08 08:45:22;;;;;;;;;;;;;;;31.13;42.36;101389.56;5091796;28;19931;-72
2021/06/08 08:47:49;;;;;;;;;;;;;;;31.44;40.22;101379.00;5090864;28;19934;-71
2021/06/08 08:50:16;;;;;;;;;;;;;;;31.65;41.14;101392.34;5091777;28;19931;-71
2021/06/08 08:52:43;;;;;;;;;;;;;;;31.17;40.98;101377.59;5091606;28;20367;-71
2021/06/08 08:55:10;;;;;;;;;;;;;;;31.40;43.01;101389.84;5091896;28;19924;-71
2021/06/08 08:57:36;;;;;;;;;;;;;;;31.04;41.00;101397.47;5091466;28;19963;-71
2021/06/08 09:00:05;;;;;;;;;;;;;;;30.88;40.00;101383.09;5092173;28;19924;-72
2021/06/08 09:02:32;;;;;;;;;;;;;;;30.78;42.82;101385.66;5091031;28;19936;-70
2021/06/08 09:04:59;;;;;;;;;;;;;;;30.37;40.36;101387.44;5089752;28;19963;-72
2021/06/08 09:07:25;;;;;;;;;;;;;;;30.74;42.99;101383.59;5092030;28;19970;-72
2021/06/08 09:09:51;;;;;;;;;;;;;;;31.40;42.77;101387.03;5091193;28;19928;-71
2021/06/08 09:12:17;;;;;;;;;;;;;;;31.37;38.59;101385.63;5091913;28;19924;-72
2021/06/08 09:14:43;;;;;;;;;;;;;;;31.74;38.14;101381.59;5091031;28;19997;-70
2021/06/08 09:17:09;;;;;;;;;;;;;;;31.74;36.48;101387.19;5090538;28;20295;-71
2021/06/08 09:19:36;;;;;;;;;;;;;;;31.70;35.17;101388.81;5090735;28;19924;-71
2021/06/08 09:22:02;;;;;;;;;;;;;;;31.42;35.25;101375.59;5090697;28;19928;-70
2021/06/08 09:24:30;;;;;;;;;;;;;;;31.98;36.87;101382.31;5090509;28;20033;-69
2021/06/08 09:26:59;;;;;;;;;;;;;;;31.32;36.31;101379.91;5089833;28;19928;-70
2021/06/08 09:29:32;;;;;;;;;;;;;;;30.97;36.41;101377.13;5089732;28;19931;-71
2021/06/08 09:32:11;;;;;;;;;;;;;;;30.12;38.13;101388.50;5091293;28;20328;-72
2021/06/08 09:34:39;;;;;;;;;;;;;;;30.64;38.83;101389.78;5088091;28;19924;-71
2021/06/08 09:37:05;;;;;;;;;;;;;;;31.03;39.67;101384.56;5091268;28;20509;-71
2021/06/08 09:39:31;;;;;;;;;;;;;;;31.50;37.63;101384.47;5089658;28;19924;-70
2021/06/08 09:41:57;;;;;;;;;;;;;;;32.27;35.83;101381.44;5089821;28;19924;-70
2021/06/08 09:44:23;;;;;;;;;;;;;;;32.48;37.87;101385.44;5090762;28;19950;-70
2021/06/08 09:46:49;;;;;;;;;;;;;;;32.29;38.59;101380.09;5091014;28;20001;-70
2021/06/08 09:49:16;;;;;;;;;;;;;;;31.98;35.50;101375.88;5091053;28;19927;-70
2021/06/08 09:51:47;;;;;;;;;;;;;;;31.87;35.67;101384.09;5091227;28;19924;-70
2021/06/08 09:54:23;;;;;;;;;;;;;;;32.50;35.19;101384.09;5090079;28;20329;-69
2021/06/08 09:56:49;;;;;;;;;;;;;;;31.50;36.98;101373.22;5090388;28;19963;-71
2021/06/08 09:59:14;;;;;;;;;;;;;;;30.76;37.24;101371.06;5091270;28;19924;-70
2021/06/08 10:01:40;;;;;;;;;;;;;;;30.79;39.68;101378.13;5089971;28;19977;-69
2021/06/08 10:04:06;;;;;;;;;;;;;;;31.37;40.34;101370.72;5090444;28;20430;-68
2021/06/08 10:06:35;;;;;;;;;;;;;;;30.68;38.01;101368.59;5090837;28;19924;-69
2021/06/08 10:09:04;;;;;;;;;;;;;;;30.98;41.28;101373.22;5088505;28;19987;-68
2021/06/08 10:11:30;;;;;;;;;;;;;;;31.13;38.75;101375.53;5081008;28;20014;-68
2021/06/08 10:14:08;;;;;;;;;;;;;;;30.97;39.82;101371.50;5089745;28;19947;-68
2021/06/08 10:16:35;;;;;;;;;;;;;;;30.53;42.87;101383.97;5086427;28;20295;-68
2021/06/08 10:19:01;;;;;;;;;;;;;;;30.10;41.61;101378.63;5090504;28;19928;-68
2021/06/08 10:21:48;;;;;;;;;;;;;;;29.81;41.92;101383.97;5090378;28;19974;-68
2021/06/08 10:24:17;;;;;;;;;;;;;;;29.69;43.13;101386.72;5084656;28;20064;-69
2021/06/08 10:26:47;;;;;;;;;;;;;;;29.43;42.56;101380.41;5090276;28;19928;-68
2021/06/08 10:29:14;;;;;;;;;;;;;;;29.12;46.20;101385.06;5089715;28;20399;-68
2021/06/08 10:31:41;;;;;;;;;;;;;;;28.67;45.59;101379.75;5094527;28;19977;-68
2021/06/08 10:34:07;;;;;;;;;;;;;;;28.24;47.91;101386.97;5094098;28;19928;-68
2021/06/08 10:36:34;;;;;;;;;;;;;;;27.33;49.06;101386.16;5094059;28;19928;-68
2021/06/08 10:39:00;;;;;;;;;;;;;;;27.64;53.43;101390.13;5093300;28;19924;-68
2021/06/08 10:41:27;;;;;;;;;;;;;;;29.12;49.71;101371.09;5094504;28;19931;-68
2021/06/08 10:43:54;;;;;;;;;;;;;;;30.42;42.39;101370.75;5094289;28;19924;-68
2021/06/08 10:46:24;;;;;;;;;;;;;;;31.39;40.46;101368.53;5093407;28;19947;-68
2021/06/08 10:48:50;;;;;;;;;;;;;;;30.39;42.21;101374.91;5094376;28;20402;-68
2021/06/08 10:51:18;;;;;;;;;;;;;;;30.74;41.13;101364.84;5090933;28;19935;-69
2021/06/08 10:53:45;;;;;;;;;;;;;;;30.29;40.19;101371.88;5088442;28;20027;-68
2021/06/08 10:56:22;;;;;;;;;;;;;;;29.84;42.02;101380.72;5094333;28;19978;-69
2021/06/08 10:58:51;;;;;;;;;;;;;;;30.08;41.14;101373.28;5093675;28;19932;-68
2021/06/08 11:01:38;;;;;;;;;;;;;;;30.68;41.42;101365.81;5093750;28;19985;-69
2021/06/08 11:04:04;;;;;;;;;;;;;;;31.68;36.94;101371.38;5092687;28;19931;-69
2021/06/08 11:06:45;;;;;;;;;;;;;;;31.81;39.39;101373.84;5092070;28;19985;-69
2021/06/08 11:09:13;;;;;;;;;;;;;;;31.35;39.37;101367.34;5094044;28;20407;-68
2021/06/08 11:11:43;;;;;;;;;;;;;;;30.70;39.53;101372.88;5093741;28;20398;-68
2021/06/08 11:14:39;;;;;;;;;;;;;;;31.07;38.61;101374.59;5093748;28;19925;-68
2021/06/08 11:17:06;;;;;;;;;;;;;;;31.51;38.05;101365.69;5091330;28;19928;-68
2021/06/08 11:19:51;;;;;;;;;;;;;;;31.27;36.73;101356.47;5091926;28;20096;-68
2021/06/08 11:22:18;;;;;;;;;;;;;;;30.69;38.14;101361.91;5093868;28;19967;-68
2021/06/08 11:24:45;;;;;;;;;;;;;;;30.01;40.95;101366.91;5093182;28;19928;-68
2021/06/08 11:27:11;;;;;;;;;;;;;;;30.02;41.04;101365.84;5093191;28;20158;-69
2021/06/08 11:29:46;;;;;;;;;;;;;;;30.55;40.51;101364.13;5092289;28;20375;-68
2021/06/08 11:32:42;;;;;;;;;;;;;;;31.93;38.58;101356.97;5092881;28;19924;-68
2021/06/08 11:35:09;;;;;;;;;;;;;;;32.09;36.77;101346.03;5092978;28;19970;-69
2021/06/08 11:37:48;;;;;;;;;;;;;;;32.87;40.01;101355.44;5092807;28;20407;-69
2021/06/08 11:40:33;;;;;;;;;;;;;;;33.19;35.54;101356.69;5093104;28;19931;-68
2021/06/08 11:42:59;;;;;;;;;;;;;;;32.07;34.84;101359.44;5092886;28;19931;-68
2021/06/08 11:45:27;;;;;;;;;;;;;;;31.48;36.73;101354.94;5093679;28;19924;-68
2021/06/08 11:47:53;;;;;;;;;;;;;;;30.88;36.60;101354.22;5090461;28;19928;-68
2021/06/08 11:50:33;;;;;;;;;;;;;;;30.22;38.71;101355.16;5091921;28;20012;-68
2021/06/08 11:53:06;;;;;;;;;;;;;;;30.49;36.66;101349.16;5092461;28;19974;-69
2021/06/08 11:55:31;;;;;;;;;;;;;;;30.59;39.08;101348.53;5092671;28;19938;-68
2021/06/08 11:57:57;;;;;;;;;;;;;;;31.39;37.75;101338.53;5093169;28;19971;-67
2021/06/08 12:00:41;;;;;;;;;;;;;;;29.92;38.31;101344.03;5092515;28;19959;-67
2021/06/08 12:03:22;;;;;;;;;;;;;;;30.13;39.38;101339.84;5092731;28;19956;-67
2021/06/08 12:05:48;;;;;;;;;;;;;;;29.71;39.20;101331.41;5092254;28;19982;-67
2021/06/08 12:08:21;;;;;;;;;;;;;;;30.30;41.69;101344.72;5092586;28;20000;-66
2021/06/08 12:10:48;;;;;;;;;;;;;;;30.29;39.16;101345.78;5092382;28;19977;-66
2021/06/08 12:13:15;;;;;;;;;;;;;;;30.18;39.97;101341.91;5092360;28;20035;-66
2021/06/08 12:15:43;;;;;;;;;;;;;;;31.05;38.59;101329.13;5091699;28;19924;-66
2021/06/08 12:18:10;;;;;;;;;;;;;;;30.01;38.57;101328.63;5092745;28;20418;-67
2021/06/08 12:20:37;;;;;;;;;;;;;;;30.01;39.44;101330.53;5091183;28;20015;-66
2021/06/08 12:23:03;;;;;;;;;;;;;;;29.95;38.95;101332.34;5092277;28;19977;-66
2021/06/08 12:25:30;;;;;;;;;;;;;;;30.30;39.78;101333.50;5092313;28;19924;-66
2021/06/08 12:27:56;;;;;;;;;;;;;;;30.62;39.19;101325.63;5092015;28;20023;-66
2021/06/08 12:30:23;;;;;;;;;;;;;;;30.68;39.28;101321.84;5092766;28;19924;-66
2021/06/08 12:32:53;;;;;;;;;;;;;;;30.49;42.48;101323.94;5091464;28;19932;-67